createdAt,value
2024-02-23T00:02:31.538Z,37.75
2024-02-23T00:05:36.758Z,32.50
2024-02-23T00:08:42.840Z,27.00
2024-02-23T00:11:48.837Z,27.00
2024-02-23T00:14:53.603Z,30.50
2024-02-23T00:18:00.496Z,30.50
2024-02-23T00:21:05.301Z,31.25
2024-02-23T00:24:28.090Z,35.00
2024-02-23T00:27:34.238Z,30.00
2024-02-23T00:30:38.609Z,22.00
2024-02-23T00:33:43.943Z,30.25
2024-02-23T00:36:47.996Z,32.00
2024-02-23T00:39:52.517Z,31.00
2024-02-23T00:42:58.121Z,33.00
2024-02-23T00:46:05.781Z,24.25
2024-02-23T00:49:10.350Z,24.00
2024-02-23T00:52:15.020Z,23.25
2024-02-23T00:55:19.276Z,26.25
2024-02-23T00:58:25.681Z,30.75
2024-02-23T01:01:30.172Z,25.50
2024-02-23T01:04:34.984Z,26.75
2024-02-23T01:07:40.478Z,24.25
2024-02-23T01:10:44.969Z,19.00
2024-02-23T01:13:50.829Z,27.00
2024-02-23T01:16:57.740Z,20.50
2024-02-23T01:20:02.124Z,19.00
2024-02-23T01:23:06.662Z,24.75
2024-02-23T01:26:11.064Z,35.00
2024-02-23T01:29:18.065Z,32.00
2024-02-23T01:32:21.873Z,29.00
2024-02-23T01:35:26.413Z,29.25
2024-02-23T01:38:34.105Z,21.00
2024-02-23T01:41:38.662Z,19.25
2024-02-23T01:44:44.169Z,21.50
2024-02-23T01:47:48.953Z,16.00
2024-02-23T01:50:53.325Z,26.75
2024-02-23T01:53:58.175Z,22.00
2024-02-23T01:57:13.735Z,20.00
2024-02-23T02:00:29.630Z,18.00
2024-02-23T02:03:34.791Z,17.00
2024-02-23T02:06:39.628Z,16.00
2024-02-23T02:09:43.553Z,13.75
2024-02-23T02:12:48.370Z,14.50
2024-02-23T02:15:53.826Z,19.75
2024-02-23T02:18:58.185Z,34.50
2024-02-23T02:22:02.311Z,23.50
2024-02-23T02:25:07.725Z,17.75
2024-02-23T02:28:11.663Z,14.25
2024-02-23T02:31:17.652Z,12.00
2024-02-23T02:34:22.070Z,13.25
2024-02-23T02:37:26.576Z,13.00
2024-02-23T02:40:30.556Z,19.25
2024-02-23T02:43:35.173Z,18.75
2024-02-23T02:46:40.698Z,18.00
2024-02-23T02:49:45.348Z,15.00
2024-02-23T02:52:49.398Z,13.50
2024-02-23T02:55:56.020Z,11.25
2024-02-23T02:59:00.565Z,16.00
2024-02-23T03:02:07.071Z,14.00
2024-02-23T03:05:11.209Z,16.75
2024-02-23T03:08:16.255Z,13.00
2024-02-23T03:11:22.471Z,17.25
2024-02-23T03:14:27.846Z,13.25
2024-02-23T03:17:34.447Z,15.00
2024-02-23T03:20:39.585Z,15.00
2024-02-23T03:23:44.160Z,14.50
2024-02-23T03:26:48.688Z,15.00
2024-02-23T03:29:52.940Z,14.00
2024-02-23T03:32:59.238Z,15.25
2024-02-23T03:36:03.419Z,16.25
2024-02-23T03:39:26.768Z,14.00
2024-02-23T03:42:31.016Z,14.25
2024-02-23T03:45:35.563Z,13.50
2024-02-23T03:48:41.557Z,13.75
2024-02-23T03:51:45.970Z,12.25
2024-02-23T03:54:53.170Z,14.00
2024-02-23T03:57:57.805Z,14.50
2024-02-23T04:01:01.584Z,13.00
2024-02-23T04:04:08.764Z,17.75
2024-02-23T04:07:31.791Z,16.00
2024-02-23T04:10:36.213Z,20.25
2024-02-23T04:13:40.124Z,14.00
2024-02-23T04:16:44.750Z,14.00
2024-02-23T04:19:50.337Z,14.00
2024-02-23T04:22:55.545Z,14.25
2024-02-23T04:25:59.683Z,18.00
2024-02-23T04:29:05.486Z,16.75
2024-02-23T04:32:09.503Z,21.00
2024-02-23T04:35:15.952Z,96.25
2024-02-23T04:38:19.933Z,26.75
2024-02-23T04:41:24.598Z,14.00
2024-02-23T04:44:28.665Z,16.00
2024-02-23T04:47:36.499Z,19.25
2024-02-23T04:50:42.322Z,18.50
2024-02-23T04:53:47.892Z,128.00
2024-02-23T04:56:51.995Z,14.75
2024-02-23T04:59:56.513Z,260.50
2024-02-23T05:03:00.548Z,111.00
2024-02-23T05:06:07.668Z,77.00
2024-02-23T05:09:12.350Z,28.25
2024-02-23T05:12:16.733Z,55.00
2024-02-23T05:15:20.670Z,25.25
2024-02-23T05:18:27.346Z,40.75
2024-02-23T05:21:33.444Z,33.25
2024-02-23T05:24:38.665Z,30.00
2024-02-23T05:27:42.585Z,39.00
2024-02-23T05:30:47.072Z,32.50
2024-02-23T05:33:51.262Z,20.00
2024-02-23T05:36:57.433Z,31.75
2024-02-23T05:40:03.592Z,23.25
2024-02-23T05:43:08.517Z,26.25
2024-02-23T05:46:12.549Z,35.50
2024-02-23T05:49:16.812Z,25.75
2024-02-23T05:52:22.188Z,13.75
2024-02-23T05:55:26.916Z,33.75
2024-02-23T05:58:31.165Z,23.50
2024-02-23T06:01:36.054Z,22.25
2024-02-23T06:04:40.175Z,24.25
2024-02-23T06:07:46.162Z,38.00
2024-02-23T06:10:52.855Z,10.50
2024-02-23T06:13:58.670Z,38.75
2024-02-23T06:17:02.798Z,27.50
2024-02-23T06:20:09.448Z,25.00
2024-02-23T06:23:15.527Z,28.50
2024-02-23T06:26:22.078Z,29.00
2024-02-23T06:29:26.947Z,30.25
2024-02-23T06:32:31.707Z,27.25
2024-02-23T06:35:35.874Z,29.25
2024-02-23T06:38:42.061Z,28.00
2024-02-23T06:41:46.234Z,29.00
2024-02-23T06:44:50.806Z,43.75
2024-02-23T06:47:54.941Z,57.33
2024-02-23T06:51:02.644Z,133.00
2024-02-23T06:54:09.380Z,131.50
2024-02-23T06:57:13.983Z,72.33
2024-02-23T07:00:18.346Z,75.33
2024-02-23T07:03:24.380Z,65.33
2024-02-23T07:06:32.595Z,71.33
2024-02-23T07:09:38.669Z,48.25
2024-02-23T07:12:44.685Z,54.75
2024-02-23T07:15:51.463Z,83.00
2024-02-23T07:18:56.021Z,73.00
2024-02-23T07:22:00.701Z,61.00
2024-02-23T07:25:07.181Z,57.00
2024-02-23T07:28:12.001Z,71.67
2024-02-23T07:31:16.601Z,63.33
2024-02-23T07:34:20.874Z,74.00
2024-02-23T07:37:25.814Z,62.33
2024-02-23T07:40:33.498Z,53.00
2024-02-23T07:43:37.392Z,53.75
2024-02-23T07:46:43.025Z,58.00
2024-02-23T07:49:46.873Z,39.50
2024-02-23T07:52:51.631Z,48.50
2024-02-23T07:55:57.121Z,32.50
2024-02-23T07:59:01.600Z,31.75
2024-02-23T08:02:07.134Z,36.50
2024-02-23T08:05:12.454Z,39.50
2024-02-23T08:08:16.695Z,25.50
2024-02-23T08:11:22.729Z,17.75
2024-02-23T08:14:26.684Z,11.25
2024-02-23T08:17:31.960Z,19.00
2024-02-23T08:20:35.873Z,15.00
2024-02-23T08:23:41.385Z,17.00
2024-02-23T08:26:47.020Z,14.50
2024-02-23T08:29:51.285Z,11.75
2024-02-23T08:32:55.917Z,13.00
2024-02-23T08:36:00.874Z,49.25
2024-02-23T08:39:05.031Z,26.75
2024-02-23T08:42:11.622Z,31.00
2024-02-23T08:45:15.763Z,7.00
2024-02-23T08:48:22.339Z,19.00
2024-02-23T08:51:26.929Z,10.00
2024-02-23T08:54:31.987Z,15.25
2024-02-23T08:57:38.229Z,17.00
2024-02-23T09:00:43.181Z,15.00
2024-02-23T09:03:47.536Z,11.25
2024-02-23T09:06:54.593Z,11.50
2024-02-23T09:09:58.905Z,17.75
2024-02-23T09:13:05.749Z,12.75
2024-02-23T09:16:10.187Z,14.50
2024-02-23T09:19:15.207Z,10.25
2024-02-23T09:22:19.410Z,12.00
2024-02-23T09:25:24.541Z,9.50
2024-02-23T09:28:32.413Z,10.50
2024-02-23T09:31:37.236Z,14.50
2024-02-23T09:34:41.209Z,9.75
2024-02-23T09:37:46.037Z,16.50
2024-02-23T09:40:51.030Z,15.00
2024-02-23T09:44:01.604Z,20.50
2024-02-23T09:47:09.715Z,35.75
2024-02-23T09:50:16.226Z,14.00
2024-02-23T09:53:21.938Z,19.75
2024-02-23T09:56:30.018Z,10.00
2024-02-23T09:59:37.167Z,32.00
2024-02-23T10:02:42.680Z,31.75
2024-02-23T10:05:47.393Z,20.25
2024-02-23T10:08:52.092Z,23.00
2024-02-23T10:11:56.997Z,22.50
2024-02-23T10:15:05.610Z,25.75
2024-02-23T10:18:09.854Z,16.75
2024-02-23T10:21:14.655Z,23.50
2024-02-23T10:24:19.860Z,14.50
2024-02-23T10:27:25.172Z,8.00
2024-02-23T10:30:32.155Z,5.50
2024-02-23T10:33:37.960Z,8.75
2024-02-23T10:36:44.038Z,9.50
2024-02-23T10:39:48.728Z,10.00
2024-02-23T10:42:55.126Z,7.25
2024-02-23T10:46:06.072Z,11.00
2024-02-23T10:49:11.432Z,12.25
2024-02-23T10:52:18.431Z,9.00
2024-02-23T10:55:23.998Z,15.50
2024-02-23T10:58:29.034Z,11.25
2024-02-23T11:01:36.706Z,12.50
2024-02-23T11:04:45.152Z,15.75
2024-02-23T11:07:58.949Z,13.00
2024-02-23T11:11:10.789Z,16.50
2024-02-23T11:14:14.866Z,11.00
2024-02-23T11:17:25.243Z,17.25
2024-02-23T11:20:37.616Z,10.75
2024-02-23T11:23:44.176Z,12.25
2024-02-23T11:26:53.064Z,12.75
2024-02-23T11:30:03.443Z,16.00
2024-02-23T11:33:10.994Z,17.25
2024-02-23T11:36:15.777Z,17.25
2024-02-23T11:39:20.062Z,15.00
2024-02-23T11:42:27.254Z,16.25
2024-02-23T11:45:33.217Z,13.00
2024-02-23T11:48:39.915Z,9.75
2024-02-23T11:51:44.266Z,10.00
2024-02-23T11:54:49.094Z,13.25
2024-02-23T11:58:01.426Z,9.00
2024-02-23T12:01:12.786Z,10.00
2024-02-23T12:04:18.690Z,10.75
2024-02-23T12:07:23.346Z,12.00
2024-02-23T12:10:28.050Z,10.00
2024-02-23T12:13:33.262Z,9.33
2024-02-23T12:16:37.732Z,7.50
2024-02-23T12:19:43.957Z,7.00
2024-02-23T12:22:48.117Z,11.00
2024-02-23T12:25:56.645Z,10.00
2024-02-23T12:29:04.300Z,15.50
2024-02-23T12:32:10.321Z,8.00
2024-02-23T12:35:18.990Z,7.00
2024-02-23T12:38:23.602Z,6.33
2024-02-23T12:41:27.763Z,8.00
2024-02-23T12:44:32.542Z,4.33
2024-02-23T12:47:37.107Z,5.33
2024-02-23T12:50:44.233Z,6.00
2024-02-23T12:53:48.312Z,10.67
2024-02-23T12:56:52.636Z,6.67
2024-02-23T12:59:56.557Z,9.75
2024-02-23T13:03:01.392Z,6.00
2024-02-23T13:06:08.620Z,4.00
2024-02-23T13:09:16.043Z,6.00
2024-02-23T13:12:20.682Z,10.50
2024-02-23T13:15:27.160Z,7.33
2024-02-23T13:18:33.114Z,9.67
2024-02-23T13:21:38.659Z,7.25
2024-02-23T13:24:43.123Z,6.67
2024-02-23T13:27:47.348Z,7.00
2024-02-23T13:30:52.088Z,6.33
2024-02-23T13:33:56.312Z,8.33
2024-02-23T13:37:05.243Z,7.00
2024-02-23T13:40:11.088Z,17.25
2024-02-23T13:43:15.403Z,17.00
2024-02-23T13:46:19.680Z,8.00
2024-02-23T13:49:25.671Z,14.50
2024-02-23T13:52:32.211Z,6.00
2024-02-23T13:55:37.079Z,8.00
2024-02-23T13:58:41.634Z,17.00
2024-02-23T14:01:46.568Z,18.75
2024-02-23T14:04:50.336Z,16.25
2024-02-23T14:07:56.668Z,15.75
2024-02-23T14:11:01.638Z,16.75
2024-02-23T14:14:07.251Z,12.50
2024-02-23T14:17:11.331Z,17.50
2024-02-23T14:20:15.937Z,21.00
2024-02-23T14:23:21.551Z,12.50
2024-02-23T14:26:26.575Z,8.00
2024-02-23T14:29:30.703Z,15.00
2024-02-23T14:32:36.335Z,18.00
2024-02-23T14:35:40.759Z,12.75
2024-02-23T14:38:46.187Z,12.00
2024-02-23T14:41:50.935Z,18.75
2024-02-23T14:44:54.933Z,21.25
2024-02-23T14:48:02.290Z,9.50
2024-02-23T14:51:07.022Z,9.50
2024-02-23T14:54:12.735Z,14.75
2024-02-23T14:57:16.636Z,21.00
2024-02-23T15:00:23.280Z,15.00
2024-02-23T15:03:27.681Z,14.25
2024-02-23T15:06:32.533Z,16.00
2024-02-23T15:09:41.180Z,18.25
2024-02-23T15:12:46.482Z,14.75
2024-02-23T15:15:52.018Z,13.25
2024-02-23T15:18:57.333Z,16.75
2024-02-23T15:22:01.892Z,15.50
2024-02-23T15:25:10.220Z,22.75
2024-02-23T15:28:14.777Z,15.75
2024-02-23T15:31:18.679Z,11.75
2024-02-23T15:34:23.614Z,11.00
2024-02-23T15:37:27.558Z,12.75
2024-02-23T15:40:33.373Z,11.75
2024-02-23T15:43:37.541Z,41.75
2024-02-23T15:46:42.736Z,18.75
2024-02-23T15:50:07.799Z,12.00
2024-02-23T15:53:12.196Z,10.00
2024-02-23T15:56:18.320Z,20.75
2024-02-23T15:59:24.102Z,15.00
2024-02-23T16:02:30.630Z,16.50
2024-02-23T16:06:03.573Z,12.00
2024-02-23T16:09:10.378Z,18.25
2024-02-23T16:12:16.214Z,12.00
2024-02-23T16:15:23.129Z,13.75
2024-02-23T16:18:27.494Z,6.00
2024-02-23T16:21:32.808Z,13.00
2024-02-23T16:24:56.706Z,18.75
2024-02-23T16:28:04.664Z,13.50
2024-02-23T16:31:09.872Z,9.75
2024-02-23T16:34:14.039Z,10.00
2024-02-23T16:37:19.315Z,20.25
2024-02-23T16:40:29.535Z,13.00
2024-02-23T16:43:36.045Z,9.00
2024-02-23T16:46:43.312Z,9.00
2024-02-23T16:50:04.505Z,10.25
2024-02-23T16:53:12.440Z,9.00
2024-02-23T16:56:18.006Z,10.00
2024-02-23T16:59:25.158Z,8.67
2024-02-23T17:02:32.133Z,12.00
2024-02-23T17:05:37.568Z,8.50
2024-02-23T17:08:42.372Z,11.00
2024-02-23T17:11:50.193Z,7.50
2024-02-23T17:14:56.376Z,10.00
2024-02-23T17:18:00.645Z,17.25
2024-02-23T17:21:06.827Z,12.00
2024-02-23T17:24:10.929Z,7.67
2024-02-23T17:27:15.554Z,13.75
2024-02-23T17:30:22.212Z,14.00
2024-02-23T17:33:26.681Z,15.00
2024-02-23T17:36:32.187Z,12.00
2024-02-23T17:39:36.810Z,12.00
2024-02-23T17:42:40.825Z,12.50
2024-02-23T17:45:47.166Z,14.00
2024-02-23T17:48:51.659Z,9.00
2024-02-23T17:51:57.339Z,10.50
2024-02-23T17:55:02.986Z,10.00
2024-02-23T17:58:12.652Z,7.25
2024-02-23T18:01:31.925Z,18.50
2024-02-23T18:04:58.507Z,9.00
2024-02-23T18:08:34.576Z,6.00
2024-02-23T18:15:56.750Z,4.00
2024-02-23T18:19:08.783Z,11.75
2024-02-23T18:22:15.134Z,9.50
2024-02-23T18:25:25.102Z,12.50
2024-02-23T18:28:33.651Z,7.25
2024-02-23T18:31:39.190Z,10.25
2024-02-23T18:34:45.618Z,7.50
2024-02-23T18:37:49.641Z,7.50
2024-02-23T18:40:54.162Z,9.00
2024-02-23T18:43:58.338Z,12.00
2024-02-23T18:47:04.400Z,11.00
2024-02-23T18:50:11.961Z,5.00
2024-02-23T18:53:16.270Z,10.75
2024-02-23T18:56:21.370Z,6.00
2024-02-23T18:59:26.451Z,6.00
2024-02-23T19:02:33.407Z,5.25
2024-02-23T19:05:39.330Z,5.33
2024-02-23T19:08:44.091Z,6.67
2024-02-23T19:11:48.029Z,6.50
2024-02-23T19:14:54.228Z,4.25
2024-02-23T19:17:58.612Z,4.75
2024-02-23T19:21:04.654Z,4.00
2024-02-23T19:24:09.879Z,3.00
2024-02-23T19:27:14.027Z,3.00
2024-02-23T19:30:18.939Z,5.75
2024-02-23T19:33:22.913Z,5.50
2024-02-23T19:36:31.425Z,4.00
2024-02-23T19:39:37.680Z,2.00
2024-02-23T19:42:42.163Z,2.00
2024-02-23T19:45:46.750Z,5.00
2024-02-23T19:48:52.073Z,7.25
2024-02-23T19:51:57.346Z,5.00
2024-02-23T19:55:04.309Z,4.00
2024-02-23T19:58:13.922Z,9.00
2024-02-23T20:01:24.223Z,3.00
2024-02-23T20:04:30.731Z,10.00
2024-02-23T20:07:36.826Z,10.00
2024-02-23T20:10:41.363Z,14.00
2024-02-23T20:13:47.825Z,10.00
2024-02-23T20:16:53.063Z,8.50
2024-02-23T20:19:59.868Z,7.50
2024-02-23T20:23:05.627Z,7.00
2024-02-23T20:26:10.663Z,6.00
2024-02-23T20:29:15.473Z,7.25
2024-02-23T20:32:25.743Z,5.50
2024-02-23T20:35:33.943Z,4.50
2024-02-23T20:38:42.682Z,4.50
2024-02-23T20:41:49.782Z,4.33
2024-02-23T20:44:55.449Z,3.00
2024-02-23T20:47:59.351Z,3.00
2024-02-23T20:51:06.356Z,2.00
2024-02-23T20:54:11.907Z,4.25
2024-02-23T20:57:16.467Z,6.00
2024-02-23T21:00:26.945Z,5.00
2024-02-23T21:03:31.208Z,5.00
2024-02-23T21:06:36.639Z,3.33
2024-02-23T21:09:44.051Z,5.50
2024-02-23T21:12:49.234Z,4.75
2024-02-23T21:15:56.172Z,4.00
2024-02-23T21:19:00.479Z,5.50
2024-02-23T21:22:06.575Z,9.00
2024-02-23T21:25:12.882Z,5.00
2024-02-23T21:28:18.475Z,4.00
2024-02-23T21:31:22.541Z,5.00
2024-02-23T21:34:27.038Z,3.50
2024-02-23T21:37:32.889Z,9.00
2024-02-23T21:40:38.816Z,5.00
2024-02-23T21:43:43.060Z,7.00
2024-02-23T21:46:47.816Z,3.00
2024-02-23T21:49:51.671Z,8.75
2024-02-23T21:52:56.161Z,6.00
2024-02-23T21:56:02.377Z,5.25
2024-02-23T21:59:06.703Z,7.50
2024-02-23T22:02:10.755Z,8.75
2024-02-23T22:05:16.510Z,7.25
2024-02-23T22:08:20.688Z,8.00
2024-02-23T22:11:26.980Z,5.50
2024-02-23T22:14:31.071Z,0.25
2024-02-23T22:17:35.761Z,3.00
2024-02-23T22:20:40.678Z,8.00
2024-02-23T22:23:45.154Z,9.25
2024-02-23T22:26:50.626Z,4.75
2024-02-23T22:29:55.152Z,4.00
2024-02-23T22:32:59.404Z,5.00
2024-02-23T22:36:04.042Z,4.00
2024-02-23T22:39:10.024Z,6.00
2024-02-23T22:42:16.520Z,4.00
2024-02-23T22:45:20.619Z,0.00
2024-02-23T22:48:25.523Z,2.00
2024-02-23T22:51:29.833Z,4.00
2024-02-23T22:54:34.512Z,2.75
2024-02-23T22:57:40.448Z,2.75
2024-02-23T23:00:47.053Z,3.00
2024-02-23T23:03:51.887Z,2.33
2024-02-23T23:06:56.546Z,3.00
2024-02-23T23:10:00.550Z,1.00
2024-02-23T23:13:06.409Z,3.00
2024-02-23T23:16:10.347Z,2.00
2024-02-23T23:19:14.712Z,6.00
2024-02-23T23:22:18.982Z,2.33
2024-02-23T23:25:23.299Z,3.50
2024-02-23T23:28:29.226Z,2.00
2024-02-23T23:31:33.457Z,3.00
2024-02-23T23:34:37.929Z,2.00
2024-02-23T23:37:42.314Z,3.25
2024-02-23T23:40:46.471Z,3.00
2024-02-23T23:43:52.563Z,2.00
2024-02-23T23:46:58.418Z,1.00
2024-02-23T23:50:03.290Z,3.00
2024-02-23T23:53:07.676Z,2.25
2024-02-23T23:56:12.751Z,2.00
2024-02-23T23:59:18.832Z,2.00
